Terminal Aerodrome Forecast
Issued by NWS

Current Version | Previous Version | Text Only | Print | Product List | Glossary On
Versions: 1 2 3 4 5 6 7 8 9 10 11 12 13 14 15 16 17 18 19
240
FTUS41 KPHI 252323
TAFMIV
TAF
KMIV 252323Z 2600/2624 05012KT 6SM -RA BR OVC004
      TEMPO 2600/2602 2SM RA BR OVC005
     FM260200 05008KT 4SM -SHRA BR OVC004
     FM260400 04005KT 2SM BR VCSH OVC003
     FM260600 01005KT 1SM BR OVC003
     FM261500 36005KT 5SM BR OVC010
     FM261700 33005KT P6SM BKN025=

USA.gov is the U.S. government's official web portal to all federal, state and local government web resources and services.